Time;durP1;ratioP1;P1;durP2;ratioP2;P2;SDS_P1;SDS_P2;PMS_P1;PMS_P2;Temp;Humidity;BMP_temperature;BMP_pressure;BME280_temperature;BME280_humidity;BME280_pressure;Samples;Min_cycle;Max_cycle;Signal;HPM_P1;HPM_P2
2022/02/07 00:01:48;;;;;;;9.50;5.20;;;;;;;10.16;55.03;98714.81;4446830;32;32608;-84
2022/02/07 00:04:22;;;;;;;8.23;4.43;;;;;;;10.45;54.21;98706.03;4428769;32;33799;-84
2022/02/07 00:06:49;;;;;;;11.82;5.57;;;;;;;10.13;55.06;98721.13;4444144;32;32973;-84
2022/02/07 00:09:17;;;;;;;7.78;4.78;;;;;;;9.83;55.67;98707.97;4469453;32;33040;-84
2022/02/07 00:11:45;;;;;;;7.75;4.18;;;;;;;9.97;55.39;98710.63;4441427;32;31948;-84
2022/02/07 00:14:12;;;;;;;7.35;4.45;;;;;;;10.15;54.83;98699.91;4455428;32;33073;-84
2022/02/07 00:16:42;;;;;;;5.40;4.03;;;;;;;10.42;53.92;98715.94;4458040;32;33884;-84
2022/02/07 00:19:19;;;;;;;9.20;5.03;;;;;;;10.25;54.22;98720.44;4462502;32;33015;-84
2022/02/07 00:21:48;;;;;;;8.77;5.00;;;;;;;10.57;53.34;98716.78;4448636;32;33387;-83
2022/02/07 00:24:16;;;;;;;7.18;4.47;;;;;;;10.31;53.91;98724.50;4459239;32;33660;-83
2022/02/07 00:26:43;;;;;;;8.77;4.22;;;;;;;9.97;54.73;98721.19;4446860;32;34386;-83
2022/02/07 00:29:12;;;;;;;7.55;4.75;;;;;;;10.39;53.64;98718.75;4448223;32;33104;-83
2022/02/07 00:31:43;;;;;;;8.15;4.75;;;;;;;10.16;54.13;98712.16;4467738;32;33374;-84
2022/02/07 00:34:11;;;;;;;7.45;4.78;;;;;;;10.47;53.06;98698.88;4444402;32;34624;-84
2022/02/07 00:36:39;;;;;;;8.52;4.80;;;;;;;9.96;54.60;98695.72;4437227;32;33234;-84
2022/02/07 00:39:13;;;;;;;8.90;4.85;;;;;;;10.46;53.07;98688.41;4454112;32;33806;-84
2022/02/07 00:41:56;;;;;;;7.40;4.72;;;;;;;10.01;54.23;98680.47;4446627;32;32606;-84
2022/02/07 00:44:23;;;;;;;7.53;5.22;;;;;;;9.92;54.47;98675.78;4448281;32;33773;-84
2022/02/07 00:47:07;;;;;;;7.45;4.32;;;;;;;9.85;54.68;98678.84;4444979;32;33859;-83
2022/02/07 00:49:34;;;;;;;7.15;4.68;;;;;;;9.79;54.67;98671.31;4445258;32;33962;-83
2022/02/07 00:52:02;;;;;;;9.85;4.78;;;;;;;9.57;55.43;98669.91;4443922;32;33960;-83
2022/02/07 00:54:30;;;;;;;9.02;5.57;;;;;;;9.28;55.94;98657.56;4440550;32;33437;-84
2022/02/07 00:56:59;;;;;;;8.88;4.90;;;;;;;9.58;55.33;98650.50;4456692;32;33601;-84
2022/02/07 00:59:27;;;;;;;7.87;4.55;;;;;;;9.43;55.74;98641.72;4420354;32;33519;-84
2022/02/07 01:01:56;;;;;;;15.15;5.93;;;;;;;9.37;56.09;98623.63;4435336;32;32465;-83
2022/02/07 01:04:24;;;;;;;10.40;5.45;;;;;;;9.06;57.04;98628.94;4447874;32;33086;-84
2022/02/07 01:06:53;;;;;;;8.50;5.35;;;;;;;8.84;57.64;98632.78;4446860;32;33926;-83
2022/02/07 01:09:27;;;;;;;9.43;5.32;;;;;;;8.88;57.75;98633.47;4441834;32;32957;-84
2022/02/07 01:12:11;;;;;;;9.07;5.28;;;;;;;8.97;57.68;98614.50;4456534;32;33923;-84
2022/02/07 01:15:14;;;;;;;10.23;5.68;;;;;;;8.66;58.66;98628.53;4439798;32;33590;-84
2022/02/07 01:46:05;;;;;;;10.50;6.20;;;;;;;8.20;61.55;98578.34;4449425;32;34126;-84
2022/02/07 01:50:51;;;;;;;12.07;5.78;;;;;;;8.20;60.61;98529.22;4460562;32;34740;-84
2022/02/07 01:56:13;;;;;;;14.75;6.50;;;;;;;8.31;60.60;98507.63;4446664;32;31866;-83
2022/02/07 01:58:41;;;;;;;11.50;6.18;;;;;;;8.50;nan;98499.59;4445546;32;32003;-83
2022/02/07 02:01:08;;;;;;;10.60;5.93;;;;;;;8.40;60.14;98501.91;4447415;32;34042;-83
2022/02/07 02:03:36;;;;;;;10.18;5.85;;;;;;;8.27;60.71;98506.09;4435443;32;32705;-83
2022/02/07 02:06:07;;;;;;;13.52;6.60;;;;;;;8.34;60.42;98512.69;4434058;32;33640;-83
2022/02/07 02:08:36;;;;;;;12.05;6.80;;;;;;;8.19;60.82;98497.78;4469901;32;33544;-83
2022/02/07 02:11:04;;;;;;;10.73;6.43;;;;;;;8.10;61.32;98487.75;4446656;32;34467;-83
2022/02/07 02:14:44;;;;;;;9.38;6.35;;;;;;;8.27;60.49;98495.59;4457618;32;34569;-84
2022/02/07 02:16:42;;;;;;;10.85;5.75;;;;;;;8.03;61.36;98497.78;4427136;32;33241;-83
2022/02/07 02:46:54;;;;;;;10.15;6.50;;;;;;;8.04;62.95;98441.62;4445413;32;33108;-82
2022/02/07 02:49:30;;;;;;;10.90;6.50;;;;;;;8.18;62.51;98448.75;4469716;32;33796;-83
2022/02/07 02:51:58;;;;;;;10.65;6.40;;;;;;;8.27;62.21;98434.25;4454472;32;32647;-82
2022/02/07 02:54:26;;;;;;;11.10;6.35;;;;;;;7.90;63.14;98445.00;4448190;32;33027;-82
2022/02/07 02:56:54;;;;;;;14.48;7.40;;;;;;;7.98;63.19;98435.88;4456719;32;34469;-82
2022/02/07 02:59:23;;;;;;;12.60;6.97;;;;;;;8.10;62.74;98427.28;4443457;32;32212;-82
2022/02/07 03:01:51;;;;;;;11.15;6.75;;;;;;;8.29;62.09;98408.69;4449516;32;33740;-83
2022/02/07 03:04:18;;;;;;;16.23;6.53;;;;;;;8.55;61.35;98415.16;4459672;32;33985;-82
2022/02/07 03:06:49;;;;;;;11.45;6.50;;;;;;;8.48;61.10;98404.12;4447970;32;33443;-82
2022/02/07 03:09:17;;;;;;;9.07;5.78;;;;;;;8.10;62.28;98404.47;4445710;32;33660;-82
2022/02/07 03:11:45;;;;;;;11.85;6.97;;;;;;;8.41;61.58;98393.13;4444694;32;34043;-81
2022/02/07 03:14:21;;;;;;;11.73;6.72;;;;;;;8.42;61.52;98394.81;4446795;32;32391;-82
2022/02/07 03:16:50;;;;;;;13.95;6.25;;;;;;;8.22;61.93;98392.44;4460975;32;32796;-81
2022/02/07 03:19:19;;;;;;;10.65;6.05;;;;;;;8.30;61.67;98395.47;4447397;32;31780;-81
2022/02/07 03:21:47;;;;;;;14.55;8.02;;;;;;;8.13;62.07;98388.53;4460755;32;34585;-81
2022/02/07 03:24:15;;;;;;;9.43;6.35;;;;;;;8.36;61.51;98389.03;4446992;32;34385;-82
2022/02/07 03:26:45;;;;;;;15.05;7.60;;;;;;;8.49;61.35;98368.13;4459966;32;33700;-82
2022/02/07 03:29:14;;;;;;;10.02;6.15;;;;;;;8.55;60.84;98346.75;4445580;32;32684;-81
2022/02/07 03:31:43;;;;;;;16.95;6.75;;;;;;;8.57;60.59;98347.50;4430798;32;32478;-82
2022/02/07 03:34:12;;;;;;;10.23;5.97;;;;;;;8.22;61.76;98371.41;4434055;32;33116;-82
2022/02/07 03:36:42;;;;;;;9.73;6.57;;;;;;;8.77;60.13;98378.75;4450633;32;33304;-81
2022/02/07 03:39:10;;;;;;;11.25;6.40;;;;;;;8.84;60.00;98373.97;4458018;32;33885;-81
2022/02/07 03:41:38;;;;;;;10.40;6.60;;;;;;;8.83;60.21;98385.41;4449024;32;33410;-81
2022/02/07 03:44:06;;;;;;;10.55;6.15;;;;;;;9.17;59.25;98377.22;4442529;32;32350;-81
2022/02/07 03:46:35;;;;;;;10.68;6.72;;;;;;;9.07;59.40;98369.94;4458851;32;33558;-81
2022/02/07 03:49:04;;;;;;;13.18;6.32;;;;;;;9.11;59.39;98356.50;4453029;32;33074;-82
2022/02/07 03:51:32;;;;;;;12.77;6.85;;;;;;;9.22;58.74;98348.81;4459283;32;33699;-82
2022/02/07 03:53:59;;;;;;;14.80;6.75;;;;;;;9.80;57.16;98352.22;4461512;32;34798;-82
2022/02/07 03:56:27;;;;;;;10.88;6.45;;;;;;;10.12;55.98;98359.88;4448624;32;33526;-81
2022/02/07 03:58:55;;;;;;;12.48;6.80;;;;;;;10.38;55.17;98363.47;4461183;32;33039;-82
2022/02/07 04:01:25;;;;;;;9.65;5.30;;;;;;;10.03;56.09;98334.09;4448889;32;33548;-82
2022/02/07 04:03:53;;;;;;;10.45;6.10;;;;;;;9.73;57.29;98327.19;4449657;32;34669;-82
2022/02/07 04:06:22;;;;;;;12.98;6.15;;;;;;;9.75;57.08;98346.41;4457928;32;33422;-82
2022/02/07 04:08:55;;;;;;;10.90;6.15;;;;;;;9.61;57.86;98354.34;4456925;32;33119;-83
2022/02/07 04:11:30;;;;;;;7.65;5.78;;;;;;;10.14;56.09;98358.81;4460587;32;33889;-82
2022/02/07 04:13:59;;;;;;;12.40;6.62;;;;;;;10.44;55.08;98366.56;4461212;32;33895;-83
2022/02/07 04:16:28;;;;;;;10.50;5.78;;;;;;;10.32;55.59;98367.38;4443755;32;33847;-83
2022/02/07 04:19:03;;;;;;;9.55;6.60;;;;;;;10.50;55.09;98360.88;4452749;32;32221;-83
2022/02/07 04:21:31;;;;;;;9.50;5.65;;;;;;;10.28;55.58;98365.88;4451767;32;33811;-83
2022/02/07 04:24:00;;;;;;;13.25;7.10;;;;;;;10.40;55.53;98365.09;4467493;32;34028;-83
2022/02/07 04:26:29;;;;;;;10.57;6.93;;;;;;;10.52;55.43;98363.41;4435810;32;32636;-82
2022/02/07 04:28:57;;;;;;;12.37;6.40;;;;;;;10.54;55.54;98363.31;4448406;32;33048;-83
2022/02/07 04:31:25;;;;;;;12.15;6.72;;;;;;;10.23;56.49;98368.78;4436896;32;34180;-83
2022/02/07 04:33:53;;;;;;;13.10;6.75;;;;;;;10.41;56.28;98366.75;4461275;32;33571;-83
2022/02/07 04:36:22;;;;;;;13.23;6.35;;;;;;;10.27;56.70;98374.75;4445621;32;34001;-84
2022/02/07 04:38:49;;;;;;;11.57;7.62;;;;;;;10.12;57.71;98375.72;4445973;32;32226;-83
2022/02/07 04:41:18;;;;;;;11.18;6.80;;;;;;;9.99;58.34;98376.47;4455955;32;33485;-83
2022/02/07 04:43:53;;;;;;;9.77;7.00;;;;;;;9.87;58.71;98377.25;4446384;32;32383;-83
2022/02/07 04:49:07;;;;;;;18.30;7.62;;;;;;;9.70;59.61;98395.94;4455814;32;34153;-83
2022/02/07 04:51:51;;;;;;;15.00;8.30;;;;;;;9.84;59.09;98393.28;4434797;32;34169;-83
2022/02/07 04:59:46;;;;;;;14.05;7.25;;;;;;;9.88;59.79;98386.88;4442558;32;33314;-82
2022/02/07 05:05:24;;;;;;;15.10;7.85;;;;;;;9.42;62.11;98402.91;4422317;32;34036;-83
2022/02/07 05:16:19;;;;;;;13.95;7.53;;;;;;;9.28;64.56;98408.16;4437021;32;32909;-82
2022/02/07 05:18:50;;;;;;;14.95;7.95;;;;;;;9.66;63.34;98389.16;4427742;32;33554;-83
2022/02/07 05:21:19;;;;;;;16.65;8.63;;;;;;;9.37;64.33;98399.72;4436083;32;33230;-82
2022/02/07 05:23:48;;;;;;;15.48;7.85;;;;;;;9.22;65.09;98416.44;4433120;32;33849;-82
2022/02/07 05:26:16;;;;;;;16.95;8.68;;;;;;;9.13;65.47;98414.38;4435113;32;33015;-82
2022/02/07 05:28:45;;;;;;;14.05;7.28;;;;;;;9.33;64.63;98416.63;4434509;32;34357;-82
2022/02/07 05:31:15;;;;;;;18.48;9.75;;;;;;;9.44;64.44;98419.44;4448056;32;33424;-81
2022/02/07 05:33:43;;;;;;;15.85;8.50;;;;;;;9.22;65.35;98413.81;4445494;32;34495;-81
2022/02/07 05:36:12;;;;;;;16.77;9.25;;;;;;;9.47;64.83;98421.91;4447560;32;33933;-81
2022/02/07 05:38:44;;;;;;;21.17;9.80;;;;;;;9.62;64.83;98421.91;4440279;32;32125;-82
2022/02/07 05:41:15;;;;;;;23.52;9.50;;;;;;;9.14;66.92;98421.31;4424764;32;33525;-82
2022/02/07 05:43:48;;;;;;;17.92;7.95;;;;;;;9.22;66.92;98421.72;4444740;32;33275;-82
2022/02/07 05:46:19;;;;;;;20.92;9.02;;;;;;;9.00;67.74;98431.81;4434842;32;31603;-81
2022/02/07 05:48:48;;;;;;;14.52;7.00;;;;;;;9.35;66.68;98433.22;4441691;32;31979;-81
2022/02/07 05:51:16;;;;;;;16.77;7.35;;;;;;;9.37;66.69;98433.09;4421818;32;33186;-82
2022/02/07 05:53:44;;;;;;;11.98;5.82;;;;;;;9.23;67.08;98433.94;4444129;32;32779;-81
2022/02/07 05:56:11;;;;;;;12.73;6.45;;;;;;;9.52;66.15;98431.31;4442866;32;34022;-82
2022/02/07 05:58:40;;;;;;;12.18;5.68;;;;;;;9.13;67.77;98440.69;4439528;32;33749;-82
2022/02/07 06:01:08;;;;;;;10.55;5.15;;;;;;;9.52;66.44;98436.59;4444257;32;34266;-83
2022/02/07 06:03:36;;;;;;;12.63;5.40;;;;;;;9.19;67.23;98435.06;4445535;32;33770;-83
2022/02/07 06:06:06;;;;;;;8.80;4.00;;;;;;;9.04;68.20;98441.25;4451035;32;33733;-82
2022/02/07 06:08:34;;;;;;;10.68;4.22;;;;;;;9.06;68.04;98440.19;4439547;32;32538;-83
2022/02/07 06:11:05;;;;;;;6.95;3.60;;;;;;;8.82;69.00;98423.22;4447602;32;32621;-83
2022/02/07 06:13:35;;;;;;;5.18;2.78;;;;;;;8.68;69.33;98438.00;4433718;32;32892;-83
2022/02/07 06:16:04;;;;;;;5.87;2.58;;;;;;;8.68;69.48;98437.16;4447121;32;33641;-83
2022/02/07 06:18:32;;;;;;;8.13;2.10;;;;;;;9.14;67.53;98434.47;4433897;32;34331;-83
2022/02/07 06:21:04;;;;;;;4.53;2.33;;;;;;;8.78;68.63;98437.47;4441934;32;33301;-83
2022/02/07 06:23:32;;;;;;;5.10;2.20;;;;;;;9.20;67.28;98439.37;4447050;32;34238;-82
2022/02/07 06:26:00;;;;;;;5.40;2.40;;;;;;;9.15;67.27;98446.72;4445118;32;33704;-83
2022/02/07 06:28:28;;;;;;;4.10;1.77;;;;;;;9.30;66.92;98464.22;4441330;32;31858;-83
2022/02/07 06:30:56;;;;;;;4.30;2.67;;;;;;;9.27;66.87;98467.06;4437898;32;32854;-83
2022/02/07 06:33:24;;;;;;;2.33;1.65;;;;;;;9.48;66.07;98465.75;4437314;32;32277;-84
2022/02/07 06:35:53;;;;;;;3.53;2.08;;;;;;;9.29;66.77;98462.53;4445232;32;32041;-84
2022/02/07 06:38:22;;;;;;;2.12;1.70;;;;;;;9.19;66.55;98446.44;4434101;32;32688;-84
2022/02/07 06:40:49;;;;;;;3.87;1.92;;;;;;;8.86;67.40;98454.53;4440785;32;33287;-84
2022/02/07 06:43:17;;;;;;;5.05;2.80;;;;;;;8.66;68.77;98449.59;4428500;32;33048;-84
2022/02/07 06:45:45;;;;;;;4.60;2.47;;;;;;;8.76;68.13;98453.37;4442145;32;33727;-84
2022/02/07 06:48:13;;;;;;;5.95;2.67;;;;;;;8.79;67.79;98461.09;4452832;32;34166;-83
2022/02/07 06:50:41;;;;;;;3.10;1.83;;;;;;;8.53;68.50;98459.94;4429876;32;33188;-84
2022/02/07 06:53:09;;;;;;;3.78;1.77;;;;;;;8.74;67.34;98463.16;4436690;32;32661;-84
2022/02/07 06:55:37;;;;;;;3.28;1.52;;;;;;;8.77;67.31;98456.84;4452522;32;34586;-83
2022/02/07 06:58:06;;;;;;;5.20;1.95;;;;;;;8.66;67.57;98470.63;4441440;32;34015;-84
2022/02/07 07:03:33;;;;;;;3.12;1.50;;;;;;;8.63;66.83;98487.44;4430206;32;32810;-84
2022/02/07 07:06:02;;;;;;;3.67;1.67;;;;;;;8.13;68.61;98493.69;4435468;32;34374;-83
2022/02/07 07:08:36;;;;;;;1.83;1.05;;;;;;;8.38;67.51;98495.84;4445602;32;32717;-83
2022/02/07 07:11:05;;;;;;;2.15;1.25;;;;;;;8.32;66.30;98509.31;4437566;32;32265;-83
2022/02/07 07:13:43;;;;;;;1.05;0.95;;;;;;;8.39;66.68;98513.31;4448155;32;33165;-83
2022/02/07 07:16:37;;;;;;;4.60;1.65;;;;;;;8.52;66.58;98523.19;4438435;32;32444;-83
2022/02/07 07:19:01;;;;;;;1.95;1.20;;;;;;;8.69;65.69;98528.34;4461222;32;34422;-83
2022/02/07 07:21:30;;;;;;;3.05;1.40;;;;;;;8.67;64.89;98538.09;4440206;32;32808;-83
2022/02/07 07:24:00;;;;;;;1.60;0.88;;;;;;;8.37;66.03;98536.25;4430519;32;33687;-83
2022/02/07 07:26:30;;;;;;;2.08;1.08;;;;;;;8.66;64.49;98533.78;4442733;32;33895;-83
2022/02/07 07:29:02;;;;;;;2.17;0.93;;;;;;;8.46;64.13;98527.84;4457826;32;33373;-83
2022/02/07 07:31:31;;;;;;;2.10;1.02;;;;;;;8.37;65.67;98546.78;4452206;32;30676;-84
2022/02/07 07:33:59;;;;;;;1.58;0.93;;;;;;;8.56;63.52;98538.72;4445560;32;33564;-83
2022/02/07 07:36:27;;;;;;;1.15;0.73;;;;;;;8.46;64.39;98551.53;4448038;32;33242;-83
2022/02/07 07:38:55;;;;;;;2.62;1.48;;;;;;;8.14;64.23;98552.37;4449470;32;33942;-83
2022/02/07 07:41:27;;;;;;;0.88;0.62;;;;;;;8.19;65.13;98555.63;4438865;32;33133;-83
2022/02/07 07:43:55;;;;;;;1.55;0.73;;;;;;;8.40;63.96;98565.03;4445760;32;33561;-83
2022/02/07 07:46:28;;;;;;;2.50;0.90;;;;;;;8.32;63.50;98569.81;4449504;32;33912;-84
2022/02/07 07:52:00;;;;;;;1.75;0.60;;;;;;;8.44;62.77;98561.25;4458079;32;32982;-83
2022/02/07 08:02:52;;;;;;;0.93;0.20;;;;;;;7.78;65.05;98629.59;4451858;32;33204;-83
2022/02/07 08:05:30;;;;;;;0.60;0.17;;;;;;;7.32;66.59;98631.06;4437514;32;33376;-83
2022/02/07 08:08:07;;;;;;;0.22;0.20;;;;;;;7.25;66.39;98661.16;4449014;32;32947;-83
2022/02/07 08:10:52;;;;;;;0.45;0.40;;;;;;;7.29;67.04;98652.22;4450308;32;33398;-83
2022/02/07 08:13:21;;;;;;;1.27;0.43;;;;;;;6.97;67.90;98677.38;4450795;32;32803;-83
2022/02/07 08:15:48;;;;;;;0.47;0.20;;;;;;;6.68;69.99;98693.53;4444276;32;33233;-83
2022/02/07 08:18:16;;;;;;;0.75;0.30;;;;;;;6.92;68.72;98685.47;4462951;32;34091;-83
2022/02/07 08:20:44;;;;;;;0.75;0.40;;;;;;;6.55;69.47;98691.53;4427240;32;33909;-83
2022/02/07 08:23:12;;;;;;;0.10;0.10;;;;;;;6.09;71.19;98683.09;4463222;32;31375;-83
2022/02/07 08:25:39;;;;;;;1.35;0.22;;;;;;;6.20;71.25;98680.84;4463840;32;33289;-83
2022/02/07 08:28:09;;;;;;;0.65;0.13;;;;;;;6.63;69.39;98679.78;4431344;32;31119;-83
2022/02/07 08:30:36;;;;;;;0.03;0.03;;;;;;;6.49;69.97;98681.31;4450740;32;32881;-83
2022/02/07 08:33:05;;;;;;;1.65;0.20;;;;;;;6.71;69.22;98676.81;4434414;32;33116;-83
2022/02/07 08:35:33;;;;;;;0.60;0.20;;;;;;;6.62;69.67;98687.72;4436837;32;34304;-83
2022/02/07 08:38:01;;;;;;;0.55;0.10;;;;;;;6.89;68.79;98681.22;4438588;32;32717;-84
2022/02/07 08:40:29;;;;;;;0.30;0.30;;;;;;;6.82;68.93;98684.19;4452577;32;33200;-83
2022/02/07 08:42:57;;;;;;;1.58;0.40;;;;;;;6.65;70.29;98687.59;4431704;32;33757;-84
2022/02/07 08:45:25;;;;;;;0.70;0.30;;;;;;;6.98;68.32;98669.44;4441597;32;31779;-85
2022/02/07 08:47:57;;;;;;;0.10;0.10;;;;;;;6.61;69.86;98686.03;4452866;32;33619;-84
2022/02/07 08:50:27;;;;;;;0.43;0.40;;;;;;;6.63;68.97;98707.78;4452108;32;33715;-85
2022/02/07 08:52:57;;;;;;;0.62;0.30;;;;;;;6.76;68.77;98708.09;4446618;32;33543;-85
2022/02/07 08:55:37;;;;;;;0.82;0.68;;;;;;;6.73;69.13;98700.34;4462185;32;33757;-84
2022/02/07 08:58:09;;;;;;;0.80;0.50;;;;;;;7.11;67.71;98699.41;4441979;32;33429;-84
2022/02/07 09:11:13;;;;;;;0.30;0.20;;;;;;;7.06;64.61;98768.81;4448620;32;33485;-84
2022/02/07 09:13:43;;;;;;;0.93;0.50;;;;;;;6.77;65.96;98781.47;4434164;32;32636;-84
2022/02/07 09:18:44;;;;;;;1.50;0.32;;;;;;;6.88;65.51;98783.59;4461751;32;33338;-84
2022/02/07 09:21:13;;;;;;;2.05;0.40;;;;;;;6.76;67.22;98787.63;4435188;32;34083;-84
2022/02/07 09:23:41;;;;;;;0.55;0.22;;;;;;;6.95;67.66;98807.81;4451822;32;31455;-84
2022/02/07 09:26:09;;;;;;;2.15;0.45;;;;;;;6.51;69.40;98821.97;4440595;32;33542;-85
2022/02/07 09:28:37;;;;;;;0.60;0.20;;;;;;;6.62;69.49;98829.38;4448296;32;32087;-84
2022/02/07 09:31:05;;;;;;;0.95;0.50;;;;;;;6.26;70.06;98816.88;4446205;32;33169;-85
2022/02/07 09:33:33;;;;;;;0.68;0.43;;;;;;;6.38;70.04;98832.12;4447567;32;32220;-85
2022/02/07 09:36:01;;;;;;;0.80;0.50;;;;;;;6.20;70.93;98832.88;4422254;32;32135;-85
2022/02/07 09:38:29;;;;;;;0.52;0.47;;;;;;;6.26;70.20;98840.47;4451076;32;32547;-84
2022/02/07 09:40:58;;;;;;;0.57;0.30;;;;;;;6.15;68.50;98845.31;4459899;32;34258;-85
2022/02/07 09:43:34;;;;;;;0.47;0.30;;;;;;;5.86;71.58;98851.72;4450778;32;33531;-84
2022/02/07 09:46:06;;;;;;;3.65;0.60;;;;;;;6.12;67.55;98850.69;4449207;32;33295;-84
2022/02/07 09:48:38;;;;;;;;;;;;;;;6.02;67.12;98855.44;4448337;32;32876;-84
2022/02/07 09:51:08;;;;;;;0.33;0.20;;;;;;;6.19;68.64;98856.53;4444763;32;34398;-84
2022/02/07 09:53:37;;;;;;;1.25;0.45;;;;;;;6.29;65.99;98850.84;4452119;32;31817;-84
2022/02/07 09:56:07;;;;;;;0.88;0.62;;;;;;;6.19;64.96;98851.28;4454813;32;32959;-84
2022/02/07 09:58:38;;;;;;;1.15;0.50;;;;;;;6.11;66.33;98855.06;4450356;32;33817;-83
2022/02/07 10:01:09;;;;;;;2.80;0.43;;;;;;;6.32;63.82;98868.22;4433043;32;33978;-84
2022/02/07 10:04:01;;;;;;;5.10;0.80;;;;;;;6.17;65.70;98877.56;4450992;32;33527;-84
2022/02/07 10:06:47;;;;;;;1.92;0.68;;;;;;;6.69;64.90;98870.12;4440750;32;33556;-84
2022/02/07 10:09:37;;;;;;;1.33;0.40;;;;;;;7.08;62.89;98879.84;4446608;32;33614;-84
2022/02/07 10:17:46;;;;;;;2.28;0.52;;;;;;;7.67;59.51;98900.78;4439190;32;33050;-84
2022/02/07 10:48:38;;;;;;;1.05;0.37;;;;;;;8.54;49.00;98940.47;4423466;32;33420;-84
2022/02/07 10:51:20;;;;;;;1.23;0.30;;;;;;;8.92;49.16;98940.34;4434128;32;33232;-84
2022/02/07 10:53:53;;;;;;;1.62;0.40;;;;;;;8.50;47.79;98927.56;4443164;32;32677;-84
2022/02/07 10:56:23;;;;;;;1.30;0.20;;;;;;;8.90;45.46;98913.25;4438129;32;33183;-84
2022/02/07 10:58:54;;;;;;;0.80;0.40;;;;;;;8.76;45.53;98903.44;4442302;32;31727;-83
2022/02/07 11:04:06;;;;;;;0.35;0.20;;;;;;;8.87;45.31;98901.09;4436858;32;33404;-84
2022/02/07 11:06:43;;;;;;;0.52;0.25;;;;;;;8.56;46.29;98917.59;4427752;32;32668;-84
2022/02/07 11:09:17;;;;;;;3.92;0.52;;;;;;;8.95;43.98;98914.72;4428305;32;32393;-84
2022/02/07 11:21:02;;;;;;;;;;;;;;;8.59;43.49;98938.50;4445781;32;34631;-84
2022/02/07 11:23:44;;;;;;;0.50;0.20;;;;;;;8.84;46.06;98945.19;4460589;32;33580;-84
2022/02/07 11:26:34;;;;;;;0.37;0.20;;;;;;;8.90;43.94;98969.41;4455601;32;34370;-85
2022/02/07 11:29:01;;;;;;;0.00;0.00;;;;;;;8.07;44.63;98971.66;4439594;32;33517;-84
2022/02/07 11:31:32;;;;;;;0.93;0.35;;;;;;;8.30;44.14;98987.19;4463098;32;33844;-84
2022/02/07 11:34:10;;;;;;;1.25;0.30;;;;;;;8.12;45.48;98974.94;4431576;32;33043;-84
2022/02/07 11:36:41;;;;;;;0.32;0.15;;;;;;;7.95;45.64;98973.94;4446581;32;33718;-84
2022/02/07 11:39:20;;;;;;;1.58;0.28;;;;;;;8.29;44.47;98968.88;4432674;32;32710;-84
2022/02/07 11:42:00;;;;;;;0.35;0.10;;;;;;;8.49;44.98;98967.94;4449150;32;33298;-84
2022/02/07 11:44:51;;;;;;;4.53;0.30;;;;;;;8.37;44.50;98986.03;4464000;32;33713;-84
2022/02/07 11:47:26;;;;;;;1.13;0.37;;;;;;;8.71;44.24;98985.25;4430498;32;33480;-84
2022/02/07 11:50:01;;;;;;;2.92;0.40;;;;;;;8.62;45.94;98990.97;4453902;32;32054;-84
2022/02/07 11:52:37;;;;;;;2.50;0.70;;;;;;;8.60;46.85;99015.66;4443570;32;32299;-84
2022/02/07 11:55:19;;;;;;;2.90;0.57;;;;;;;9.34;44.78;99013.69;4448634;32;34511;-85
2022/02/07 11:57:56;;;;;;;2.10;0.50;;;;;;;8.85;46.56;99013.53;4448228;32;33915;-84
2022/02/07 12:00:30;;;;;;;1.40;0.50;;;;;;;8.93;46.83;99016.66;4443331;32;33995;-83
2022/02/07 12:03:04;;;;;;;4.35;0.30;;;;;;;9.05;44.94;99014.31;4428238;32;31021;-82
2022/02/07 12:05:32;;;;;;;0.62;0.50;;;;;;;8.81;43.43;99033.03;4449282;32;34644;-82
2022/02/07 12:08:06;;;;;;;1.83;0.40;;;;;;;8.40;43.28;99027.09;4453077;32;32334;-82
2022/02/07 12:10:38;;;;;;;0.98;0.35;;;;;;;8.34;43.90;99036.12;4447417;32;32135;-82
2022/02/07 12:13:26;;;;;;;;;;;;;;;8.45;45.14;99036.53;4438326;32;33488;-82
2022/02/07 12:15:55;;;;;;;1.05;0.50;;;;;;;8.46;46.00;99053.16;4445464;32;34481;-82
2022/02/07 12:18:24;;;;;;;1.25;0.43;;;;;;;8.58;45.77;99051.72;4442618;32;34792;-82
2022/02/07 12:21:12;;;;;;;4.87;1.95;;;;;;;8.53;45.06;99044.03;4441315;32;33746;-82
2022/02/07 12:23:40;;;;;;;0.65;0.20;;;;;;;8.81;44.54;99069.88;4462228;32;33857;-82
2022/02/07 12:26:13;;;;;;;3.35;0.70;;;;;;;8.65;43.72;99066.28;4452000;32;33792;-83
2022/02/07 12:28:45;;;;;;;0.95;0.40;;;;;;;8.51;43.92;99089.78;4451111;32;33442;-83
2022/02/07 12:31:20;;;;;;;0.47;0.20;;;;;;;8.58;45.09;99088.53;4448878;32;33177;-83
2022/02/07 12:34:01;;;;;;;2.08;0.93;;;;;;;8.94;43.85;99093.84;4429621;32;32191;-82
2022/02/07 12:36:34;;;;;;;0.77;0.32;;;;;;;9.03;43.97;99103.94;4437936;32;32112;-82
2022/02/07 12:39:13;;;;;;;3.70;0.40;;;;;;;9.15;44.78;99098.06;4447857;32;34769;-82
2022/02/07 12:41:42;;;;;;;0.70;0.30;;;;;;;9.17;43.05;99119.06;4442864;32;33795;-83
2022/02/07 12:44:17;;;;;;;0.82;0.30;;;;;;;9.05;42.24;99109.13;4449442;32;32946;-83
2022/02/07 12:46:46;;;;;;;1.00;0.40;;;;;;;8.51;44.01;99113.44;4455898;32;33843;-83
2022/02/07 12:49:21;;;;;;;1.50;0.45;;;;;;;8.58;45.01;99128.00;4436155;32;32944;-82
2022/02/07 12:51:49;;;;;;;1.52;0.40;;;;;;;8.55;43.45;99146.59;4462266;32;34436;-83
2022/02/07 12:54:19;;;;;;;0.43;0.22;;;;;;;8.66;44.00;99139.06;4444537;32;32992;-83
2022/02/07 12:56:48;;;;;;;4.03;0.50;;;;;;;9.16;43.13;99160.38;4438996;32;32117;-83
2022/02/07 12:59:15;;;;;;;0.40;0.20;;;;;;;8.67;41.62;99161.81;4436806;32;32985;-83
2022/02/07 13:01:45;;;;;;;0.57;0.20;;;;;;;8.54;41.98;99163.28;4443581;32;33593;-82
2022/02/07 13:04:21;;;;;;;0.55;0.20;;;;;;;8.63;41.59;99165.50;4443206;32;33556;-83
2022/02/07 13:06:52;;;;;;;0.52;0.25;;;;;;;8.50;42.91;99175.75;4436624;32;33237;-82
2022/02/07 13:09:33;;;;;;;0.40;0.40;;;;;;;8.34;44.71;99200.97;4448714;32;33678;-83
2022/02/07 13:12:14;;;;;;;2.70;0.35;;;;;;;8.37;43.86;99195.63;4450015;32;33125;-82
2022/02/07 13:14:46;;;;;;;2.60;0.50;;;;;;;7.88;45.43;99188.06;4445433;32;33301;-83
2022/02/07 13:17:15;;;;;;;13.05;0.50;;;;;;;8.06;46.65;99196.06;4435398;32;34324;-83
2022/02/07 13:19:48;;;;;;;0.80;0.40;;;;;;;8.50;44.78;99214.34;4444994;32;33964;-83
2022/02/07 13:22:18;;;;;;;0.65;0.30;;;;;;;8.46;46.60;99217.13;4434306;32;34435;-83
2022/02/07 13:24:47;;;;;;;1.23;0.40;;;;;;;8.53;44.93;99222.09;4446214;32;33217;-83
2022/02/07 13:27:17;;;;;;;1.12;0.32;;;;;;;8.34;46.19;99222.87;4455678;32;33544;-83
2022/02/07 13:29:48;;;;;;;3.75;0.32;;;;;;;8.42;45.87;99231.31;4453217;32;33613;-83
2022/02/07 13:32:18;;;;;;;2.53;0.70;;;;;;;8.32;46.08;99235.25;4446567;32;33963;-83
2022/02/07 13:34:48;;;;;;;0.98;0.32;;;;;;;8.43;46.09;99253.22;4444234;32;34104;-83
2022/02/07 13:37:18;;;;;;;2.22;0.68;;;;;;;8.83;45.25;99247.06;4442998;32;32855;-82
2022/02/07 13:40:08;;;;;;;3.05;0.70;;;;;;;8.45;47.12;99260.16;4445885;32;33980;-82
2022/02/07 13:42:38;;;;;;;1.75;0.40;;;;;;;8.70;46.60;99272.22;4436136;32;31340;-83
2022/02/07 13:45:06;;;;;;;3.17;0.60;;;;;;;8.65;46.70;99290.00;4448260;32;33134;-83
2022/02/07 13:47:38;;;;;;;0.98;0.47;;;;;;;8.52;46.54;99278.28;4445800;32;32094;-83
2022/02/07 13:50:14;;;;;;;0.90;0.43;;;;;;;8.62;46.06;99282.22;4443028;32;34760;-83
2022/02/07 13:52:44;;;;;;;0.30;0.30;;;;;;;8.66;44.71;99292.53;4436547;32;32009;-83
2022/02/07 13:55:18;;;;;;;0.50;0.30;;;;;;;8.65;44.91;99308.41;4447141;32;32547;-83
2022/02/07 13:57:53;;;;;;;2.92;0.43;;;;;;;9.09;43.72;99295.03;4434030;32;32769;-83
2022/02/07 14:00:24;;;;;;;0.50;0.40;;;;;;;8.42;44.07;99315.50;4439708;32;32853;-83
2022/02/07 14:03:13;;;;;;;1.85;0.45;;;;;;;8.60;43.43;99313.03;4445880;32;33568;-83
2022/02/07 14:05:47;;;;;;;1.10;0.50;;;;;;;8.43;43.57;99330.37;4433073;32;31999;-83
2022/02/07 14:08:21;;;;;;;1.10;0.40;;;;;;;8.46;42.68;99332.88;4426823;32;33324;-83
2022/02/07 14:10:51;;;;;;;1.12;0.32;;;;;;;8.17;44.19;99331.44;4435175;32;33228;-84
2022/02/07 14:13:19;;;;;;;2.92;0.40;;;;;;;7.90;44.41;99336.06;4441171;32;33171;-83
2022/02/07 14:15:46;;;;;;;1.58;0.52;;;;;;;8.24;43.58;99352.22;4442788;32;33352;-83
2022/02/07 14:18:17;;;;;;;0.68;0.10;;;;;;;8.36;42.74;99357.00;4446828;32;33553;-85
2022/02/07 14:20:46;;;;;;;0.20;0.20;;;;;;;8.15;42.03;99361.34;4441675;32;33321;-84
2022/02/07 14:23:15;;;;;;;1.58;0.30;;;;;;;7.74;43.44;99377.00;4437698;32;33566;-84
2022/02/07 14:25:47;;;;;;;0.95;0.20;;;;;;;7.56;43.91;99354.06;4445056;32;33770;-84
2022/02/07 14:28:16;;;;;;;0.55;0.30;;;;;;;7.67;44.56;99371.13;4437559;32;32919;-86
2022/02/07 14:30:44;;;;;;;1.37;0.55;;;;;;;7.44;44.35;99372.00;4436240;32;33169;-86
2022/02/07 14:33:12;;;;;;;1.98;0.40;;;;;;;7.38;44.39;99377.47;4434306;32;32790;-86